Time;durP1;ratioP1;P1;durP2;ratioP2;P2;SDS_P1;SDS_P2;PMS_P1;PMS_P2;Temp;Humidity;BMP_temperature;BMP_pressure;BME280_temperature;BME280_humidity;BME280_pressure;Samples;Min_cycle;Max_cycle;Signal;HPM_P1;HPM_P2
2023/06/13 00:00:06;;;;;;;13.70;13.20;;;17.70;99.90;;;;;;5102457;27;20565;-67
2023/06/13 00:02:33;;;;;;;13.67;13.17;;;17.70;99.90;;;;;;5087064;27;20483;-67
2023/06/13 00:05:03;;;;;;;13.30;12.80;;;17.70;99.90;;;;;;5094895;27;20501;-67
2023/06/13 00:07:31;;;;;;;13.27;12.77;;;17.80;99.90;;;;;;5092970;27;20860;-66
2023/06/13 00:09:59;;;;;;;13.90;13.30;;;17.70;99.90;;;;;;5099782;27;20937;-67
2023/06/13 00:12:26;;;;;;;13.60;13.10;;;17.70;99.90;;;;;;5101764;28;21007;-68
2023/06/13 00:14:53;;;;;;;13.50;13.00;;;17.70;99.90;;;;;;5095929;28;20465;-67
2023/06/13 00:17:24;;;;;;;13.97;13.37;;;17.70;99.90;;;;;;5108733;27;21002;-66
2023/06/13 00:19:54;;;;;;;13.43;12.93;;;17.50;99.90;;;;;;5106816;27;20492;-68
2023/06/13 00:22:21;;;;;;;13.43;12.93;;;17.50;99.90;;;;;;5096991;27;20453;-67
2023/06/13 00:24:48;;;;;;;13.63;13.13;;;17.40;99.90;;;;;;5108237;27;20912;-67
2023/06/13 00:27:15;;;;;;;15.23;14.50;;;17.30;99.90;;;;;;5121403;27;20460;-67
2023/06/13 00:29:42;;;;;;;13.40;12.90;;;17.30;99.90;;;;;;5109105;27;20457;-68
2023/06/13 00:32:10;;;;;;;14.30;13.70;;;17.30;99.90;;;;;;5102907;27;20453;-68
2023/06/13 00:34:40;;;;;;;13.60;13.10;;;17.30;99.90;;;;;;5093642;28;20461;-67
2023/06/13 00:37:09;;;;;;;14.30;13.70;;;17.20;99.90;;;;;;5113959;27;20495;-68
2023/06/13 00:39:36;;;;;;;13.60;13.10;;;17.10;99.90;;;;;;5113988;27;20457;-68
2023/06/13 00:42:04;;;;;;;59.60;16.77;;;17.10;99.90;;;;;;5103043;27;20458;-67
2023/06/13 00:44:31;;;;;;;13.60;13.10;;;17.20;99.90;;;;;;5090008;27;20469;-68
2023/06/13 00:46:58;;;;;;;13.60;13.10;;;17.20;99.90;;;;;;5109637;27;20457;-68
2023/06/13 00:49:26;;;;;;;13.87;13.27;;;17.10;99.90;;;;;;5106435;27;20462;-67
2023/06/13 00:51:56;;;;;;;14.33;13.73;;;17.10;99.90;;;;;;5106993;27;20460;-68
2023/06/13 00:54:24;;;;;;;14.00;13.40;;;17.10;99.90;;;;;;5107561;27;20836;-67
2023/06/13 00:56:51;;;;;;;14.10;13.50;;;17.10;99.90;;;;;;5109681;27;20996;-68
2023/06/13 00:59:18;;;;;;;13.47;12.97;;;17.10;99.90;;;;;;5104124;28;20500;-67
2023/06/13 01:01:47;;;;;;;14.37;13.77;;;17.10;99.90;;;;;;5110845;27;20461;-67
2023/06/13 01:04:15;;;;;;;14.20;13.60;;;17.00;99.90;;;;;;5094076;27;20549;-69
2023/06/13 01:06:45;;;;;;;13.97;13.37;;;16.90;99.90;;;;;;5115792;27;20453;-67
2023/06/13 01:09:16;;;;;;;13.60;13.10;;;16.80;99.90;;;;;;5102256;28;20460;-68
2023/06/13 01:11:57;;;;;;;14.20;13.60;;;16.70;99.90;;;;;;5097628;28;20453;-69
2023/06/13 01:14:34;;;;;;;13.37;12.87;;;16.70;99.90;;;;;;5111475;28;21234;-68
2023/06/13 01:17:05;;;;;;;14.40;13.80;;;16.60;99.90;;;;;;5111215;28;20477;-68
2023/06/13 01:19:38;;;;;;;13.87;13.30;;;16.60;99.90;;;;;;5100138;28;21035;-68
2023/06/13 01:22:10;;;;;;;14.17;13.57;;;16.50;99.90;;;;;;5100961;28;20968;-68
2023/06/13 01:24:52;;;;;;;13.70;13.20;;;16.50;99.90;;;;;;5097940;28;20544;-68
2023/06/13 01:27:22;;;;;;;13.77;13.27;;;16.40;99.90;;;;;;5114044;28;21071;-67
2023/06/13 01:29:52;;;;;;;13.40;12.90;;;16.40;99.90;;;;;;5097480;28;20536;-67
2023/06/13 01:32:21;;;;;;;13.37;12.87;;;16.40;99.90;;;;;;5108860;28;20548;-68
2023/06/13 01:34:49;;;;;;;13.10;12.60;;;16.30;99.90;;;;;;5100257;28;20470;-68
2023/06/13 01:37:17;;;;;;;13.80;13.30;;;16.20;99.90;;;;;;5105761;28;20510;-67
2023/06/13 01:39:44;;;;;;;13.50;13.00;;;16.20;99.90;;;;;;5121335;28;20522;-68
2023/06/13 01:42:11;;;;;;;13.50;13.00;;;16.20;99.90;;;;;;5094923;28;20462;-68
2023/06/13 01:44:40;;;;;;;14.47;13.87;;;16.30;99.90;;;;;;5111485;28;20472;-68
2023/06/13 01:47:16;;;;;;;13.70;13.10;;;16.40;99.90;;;;;;5109196;28;20457;-68
2023/06/13 01:49:49;;;;;;;14.13;13.53;;;16.50;99.90;;;;;;5102419;28;20564;-68
2023/06/13 01:52:25;;;;;;;13.30;12.80;;;16.50;99.90;;;;;;5101652;28;20450;-68
2023/06/13 01:54:57;;;;;;;15.07;14.30;;;16.50;99.90;;;;;;5094719;28;20482;-68
2023/06/13 01:57:30;;;;;;;16.37;15.57;;;16.40;99.90;;;;;;5114358;27;21011;-67
2023/06/13 02:00:00;;;;;;;13.43;12.93;;;16.50;99.90;;;;;;5108411;27;20894;-68
2023/06/13 02:02:28;;;;;;;13.40;12.90;;;16.50;99.90;;;;;;5106627;27;21021;-67
2023/06/13 02:04:56;;;;;;;13.43;12.93;;;16.50;99.90;;;;;;5116757;27;20469;-67
2023/06/13 02:07:24;;;;;;;13.70;13.20;;;16.50;99.90;;;;;;5104751;27;20472;-67
2023/06/13 02:09:51;;;;;;;13.53;13.03;;;16.50;99.90;;;;;;5104784;27;20457;-66
2023/06/13 02:12:18;;;;;;;14.47;13.87;;;16.50;99.90;;;;;;5108407;27;20456;-67
2023/06/13 02:14:45;;;;;;;13.70;13.20;;;16.50;99.90;;;;;;5117857;27;20467;-67
2023/06/13 02:17:14;;;;;;;13.10;12.60;;;16.50;99.90;;;;;;5118437;27;20488;-67
2023/06/13 02:19:41;;;;;;;14.13;13.53;;;16.50;99.90;;;;;;5116962;27;20987;-67
2023/06/13 02:22:08;;;;;;;13.93;13.33;;;16.50;99.90;;;;;;5100915;27;20619;-68
2023/06/13 02:24:36;;;;;;;13.50;13.00;;;16.50;99.90;;;;;;5102002;27;20495;-67
2023/06/13 02:27:03;;;;;;;14.03;13.43;;;16.50;99.90;;;;;;5103586;27;20461;-67
2023/06/13 02:29:33;;;;;;;14.10;13.50;;;16.50;99.90;;;;;;5119352;27;20459;-67
2023/06/13 02:32:00;;;;;;;14.20;13.60;;;16.40;99.90;;;;;;5109603;27;20873;-68
2023/06/13 02:34:28;;;;;;;14.07;13.47;;;16.50;99.90;;;;;;5101404;27;20464;-68
2023/06/13 02:36:55;;;;;;;13.40;12.90;;;16.50;99.90;;;;;;5120805;27;20466;-68
2023/06/13 02:39:22;;;;;;;14.20;13.60;;;16.50;99.90;;;;;;5102831;27;20566;-66
2023/06/13 02:41:49;;;;;;;13.93;13.40;;;16.40;99.90;;;;;;5107128;27;20464;-67
2023/06/13 02:44:16;;;;;;;14.37;13.77;;;16.40;99.90;;;;;;5123570;27;20461;-68
2023/06/13 02:46:43;;;;;;;14.10;13.50;;;16.40;99.90;;;;;;5121465;27;20525;-67
2023/06/13 02:49:10;;;;;;;14.17;13.57;;;16.50;99.90;;;;;;5103392;27;20949;-69
2023/06/13 02:51:39;;;;;;;14.10;13.50;;;16.50;99.90;;;;;;5124166;27;20643;-66
2023/06/13 02:54:07;;;;;;;13.97;13.37;;;16.40;99.90;;;;;;5106060;27;20455;-67
2023/06/13 02:56:36;;;;;;;14.40;13.80;;;16.30;99.90;;;;;;5110746;27;20521;-68
2023/06/13 02:59:03;;;;;;;14.50;13.90;;;16.30;99.90;;;;;;5104963;27;20585;-66
2023/06/13 03:01:30;;;;;;;14.57;13.97;;;16.20;99.90;;;;;;5097858;28;20515;-67
2023/06/13 03:03:57;;;;;;;14.73;14.13;;;16.20;99.90;;;;;;5106353;27;20457;-67
2023/06/13 03:06:24;;;;;;;14.50;13.90;;;16.20;99.90;;;;;;5117700;27;20464;-65
2023/06/13 03:08:57;;;;;;;14.43;13.83;;;16.10;99.90;;;;;;5096693;28;20701;-68
2023/06/13 03:11:25;;;;;;;14.70;14.00;;;16.00;99.90;;;;;;5122673;27;20512;-67
2023/06/13 03:13:52;;;;;;;14.87;14.27;;;16.00;99.90;;;;;;5100547;27;21044;-67
2023/06/13 03:16:18;;;;;;;15.03;14.40;;;16.00;99.90;;;;;;5095794;27;21079;-67
2023/06/13 03:18:45;;;;;;;14.30;13.70;;;16.00;99.90;;;;;;5104900;27;20484;-66
2023/06/13 03:21:12;;;;;;;14.20;13.60;;;16.00;99.90;;;;;;5121415;27;20952;-67
2023/06/13 03:23:39;;;;;;;14.33;13.73;;;15.80;99.90;;;;;;5102758;27;21267;-67
2023/06/13 03:26:09;;;;;;;15.57;14.87;;;15.80;99.90;;;;;;5118198;27;20453;-67
2023/06/13 03:28:36;;;;;;;15.00;14.20;;;15.70;99.90;;;;;;5112904;27;20468;-67
2023/06/13 03:31:04;;;;;;;14.70;14.10;;;15.70;99.90;;;;;;5087334;28;20458;-67
2023/06/13 03:33:30;;;;;;;14.37;13.77;;;15.60;99.90;;;;;;5106553;27;20838;-67
2023/06/13 03:35:57;;;;;;;14.30;13.70;;;15.60;99.90;;;;;;5119338;27;20978;-67
2023/06/13 03:38:27;;;;;;;13.80;13.30;;;15.50;99.90;;;;;;5118435;27;20500;-67
2023/06/13 03:40:54;;;;;;;14.40;13.80;;;15.50;99.90;;;;;;5106853;27;21000;-67
2023/06/13 03:43:22;;;;;;;14.10;13.50;;;15.50;99.90;;;;;;5101245;27;20552;-66
2023/06/13 03:45:49;;;;;;;14.10;13.50;;;15.50;99.90;;;;;;5108586;27;20544;-68
2023/06/13 03:48:17;;;;;;;14.73;14.13;;;15.40;99.90;;;;;;5100045;27;20921;-67
2023/06/13 03:50:44;;;;;;;14.13;13.53;;;15.40;99.90;;;;;;5107346;27;21166;-67
2023/06/13 03:53:10;;;;;;;14.27;13.67;;;15.40;99.90;;;;;;5117893;27;20461;-67
2023/06/13 03:55:37;;;;;;;17.27;16.40;;;15.50;99.90;;;;;;5106430;27;20584;-67
2023/06/13 03:58:05;;;;;;;14.93;14.23;;;15.50;99.90;;;;;;5122245;27;20460;-66
2023/06/13 04:00:33;;;;;;;14.80;14.20;;;15.50;99.90;;;;;;5105573;27;21024;-67
2023/06/13 04:03:00;;;;;;;15.80;14.93;;;15.50;99.90;;;;;;5101796;27;20481;-67
2023/06/13 04:05:27;;;;;;;14.30;13.70;;;15.50;99.90;;;;;;5091040;28;20978;-67
2023/06/13 04:07:55;;;;;;;14.27;13.67;;;15.50;99.90;;;;;;5114539;27;20467;-67
2023/06/13 04:10:22;;;;;;;14.50;13.90;;;15.50;99.90;;;;;;5104166;27;20461;-67
2023/06/13 04:12:50;;;;;;;14.10;13.50;;;15.50;99.90;;;;;;5121047;27;21221;-67
2023/06/13 04:15:17;;;;;;;14.53;13.93;;;15.60;99.90;;;;;;5106116;27;20825;-68
2023/06/13 04:17:45;;;;;;;14.73;14.03;;;15.60;99.90;;;;;;5110179;27;20460;-68
2023/06/13 04:20:14;;;;;;;14.17;13.57;;;15.80;99.90;;;;;;5098324;27;20494;-68
2023/06/13 04:22:42;;;;;;;14.33;13.73;;;15.90;99.90;;;;;;5107063;27;20457;-68
2023/06/13 04:25:10;;;;;;;14.37;13.77;;;16.00;99.90;;;;;;5121425;27;20543;-68
2023/06/13 04:27:38;;;;;;;14.47;13.87;;;16.00;99.90;;;;;;5116493;27;20538;-66
2023/06/13 04:30:06;;;;;;;14.40;13.80;;;16.00;99.90;;;;;;5107469;27;20473;-67
2023/06/13 04:32:34;;;;;;;14.70;14.10;;;16.00;99.90;;;;;;5102558;27;20527;-67
2023/06/13 04:35:03;;;;;;;15.33;14.63;;;16.10;99.90;;;;;;5099255;27;20456;-67
2023/06/13 04:37:30;;;;;;;15.30;14.60;;;16.10;99.90;;;;;;5098325;27;20581;-67
2023/06/13 04:39:58;;;;;;;15.07;14.43;;;16.20;99.90;;;;;;5114141;27;20499;-68
2023/06/13 04:42:27;;;;;;;15.27;14.57;;;16.40;99.90;;;;;;5108992;27;20470;-67
2023/06/13 04:44:55;;;;;;;15.20;14.50;;;16.60;99.90;;;;;;5106296;27;20488;-67
2023/06/13 04:47:23;;;;;;;15.40;14.70;;;16.80;99.90;;;;;;5108157;28;20495;-67
2023/06/13 04:49:51;;;;;;;15.57;14.87;;;16.90;99.90;;;;;;5107902;27;20958;-67
2023/06/13 04:52:23;;;;;;;15.57;14.87;;;17.20;99.90;;;;;;5088369;28;20462;-67
2023/06/13 04:54:51;;;;;;;15.40;14.70;;;17.20;99.90;;;;;;5104829;27;20469;-67
2023/06/13 04:57:19;;;;;;;16.17;15.47;;;17.30;99.90;;;;;;5114690;27;20533;-67
2023/06/13 04:59:46;;;;;;;15.60;14.90;;;17.30;99.90;;;;;;5104556;27;20549;-67
2023/06/13 05:02:14;;;;;;;15.83;15.13;;;17.50;99.90;;;;;;5098609;27;20552;-67
2023/06/13 05:04:42;;;;;;;15.73;15.03;;;17.80;99.90;;;;;;5126594;27;20460;-66
2023/06/13 05:07:09;;;;;;;15.60;14.90;;;17.90;99.90;;;;;;5107921;27;20452;-66
2023/06/13 05:09:38;;;;;;;15.93;15.23;;;17.90;99.90;;;;;;5088297;28;20476;-68
2023/06/13 05:12:06;;;;;;;16.03;15.33;;;18.10;99.90;;;;;;5091141;28;20486;-66
2023/06/13 05:14:32;;;;;;;15.70;15.00;;;18.20;99.90;;;;;;5096093;28;20466;-66
2023/06/13 05:17:01;;;;;;;15.60;14.90;;;18.30;99.90;;;;;;5091524;28;20920;-67
2023/06/13 05:19:28;;;;;;;16.00;15.30;;;18.30;99.90;;;;;;5092313;28;20574;-68
2023/06/13 05:21:54;;;;;;;15.80;15.10;;;18.60;99.90;;;;;;5099090;28;20453;-67
2023/06/13 05:24:22;;;;;;;16.27;15.47;;;18.80;99.90;;;;;;5094747;28;20972;-67
2023/06/13 05:26:51;;;;;;;16.33;15.63;;;18.80;99.90;;;;;;5093798;28;20905;-67
2023/06/13 05:29:18;;;;;;;16.20;15.50;;;18.90;99.90;;;;;;5110242;27;20561;-67
2023/06/13 05:31:44;;;;;;;15.70;15.00;;;19.10;99.90;;;;;;5110102;27;20453;-67
2023/06/13 05:34:12;;;;;;;15.80;15.10;;;19.30;99.90;;;;;;5103781;27;20465;-66
2023/06/13 05:36:39;;;;;;;15.63;14.93;;;19.40;99.90;;;;;;5108303;27;20827;-67
2023/06/13 05:39:08;;;;;;;15.67;14.97;;;19.50;99.90;;;;;;5099939;27;20966;-67
2023/06/13 05:41:34;;;;;;;15.80;15.10;;;19.50;99.90;;;;;;5110865;27;20956;-67
2023/06/13 05:44:03;;;;;;;16.43;15.73;;;19.60;99.90;;;;;;5105295;27;20456;-67
2023/06/13 05:46:30;;;;;;;15.77;15.07;;;19.70;99.90;;;;;;5108923;27;20465;-67
2023/06/13 05:48:57;;;;;;;15.63;14.93;;;19.80;99.90;;;;;;5102249;28;20858;-67
2023/06/13 05:51:25;;;;;;;16.20;15.50;;;20.10;99.90;;;;;;5095253;27;20951;-66
2023/06/13 05:53:52;;;;;;;15.70;15.00;;;20.30;99.90;;;;;;5107377;27;20444;-67
2023/06/13 05:56:19;;;;;;;16.30;15.60;;;20.40;99.90;;;;;;5103770;27;20457;-67
2023/06/13 05:58:46;;;;;;;16.23;15.53;;;20.60;99.90;;;;;;5093698;27;20464;-66
2023/06/13 06:01:14;;;;;;;16.37;15.67;;;20.60;99.90;;;;;;5105484;27;20478;-68
2023/06/13 06:03:41;;;;;;;15.60;14.90;;;20.70;99.90;;;;;;5121956;27;20453;-68
2023/06/13 06:06:08;;;;;;;16.40;15.70;;;20.90;99.90;;;;;;5101210;27;20473;-67
2023/06/13 06:08:34;;;;;;;15.90;15.20;;;21.10;99.90;;;;;;5101018;27;20468;-67
2023/06/13 06:11:02;;;;;;;16.27;15.47;;;21.20;99.90;;;;;;5108121;27;20465;-68
2023/06/13 06:13:29;;;;;;;16.30;15.60;;;21.30;99.90;;;;;;5098369;27;20458;-67
2023/06/13 06:15:56;;;;;;;17.83;16.97;;;21.40;99.90;;;;;;5107687;27;20839;-67
2023/06/13 06:18:24;;;;;;;15.80;15.10;;;21.40;99.90;;;;;;5093772;27;20461;-67
2023/06/13 06:20:53;;;;;;;15.70;15.00;;;21.60;99.90;;;;;;5103320;27;20485;-66
2023/06/13 06:23:19;;;;;;;15.53;14.83;;;21.80;99.90;;;;;;5120709;27;20463;-67
2023/06/13 06:25:46;;;;;;;15.70;15.00;;;21.90;99.90;;;;;;5116660;27;20484;-67
2023/06/13 06:28:13;;;;;;;16.63;15.90;;;21.90;99.90;;;;;;5114632;27;21045;-67
2023/06/13 06:30:40;;;;;;;16.10;15.40;;;22.10;99.90;;;;;;5110322;27;20526;-67
2023/06/13 06:33:07;;;;;;;15.90;15.20;;;22.20;99.90;;;;;;5102177;27;20457;-68
2023/06/13 06:35:35;;;;;;;15.80;15.10;;;22.40;99.90;;;;;;5094818;27;20457;-67
2023/06/13 06:38:03;;;;;;;16.30;15.50;;;22.50;99.40;;;;;;5095332;28;20588;-67
2023/06/13 06:40:30;;;;;;;16.77;15.97;;;22.50;99.80;;;;;;5096389;27;20529;-67
2023/06/13 06:42:56;;;;;;;16.60;15.80;;;22.80;99.10;;;;;;5107579;27;20460;-68
2023/06/13 06:45:24;;;;;;;16.60;15.80;;;23.10;98.40;;;;;;5108011;27;20990;-67
2023/06/13 06:47:51;;;;;;;15.83;15.13;;;23.20;97.50;;;;;;5103443;27;21522;-68
2023/06/13 06:50:18;;;;;;;15.77;15.07;;;23.10;97.80;;;;;;5102370;28;20514;-68
2023/06/13 06:52:47;;;;;;;16.50;15.80;;;23.20;97.00;;;;;;5119236;27;20465;-67
2023/06/13 06:55:14;;;;;;;16.20;15.50;;;23.10;96.70;;;;;;5091387;27;20493;-67
2023/06/13 06:57:41;;;;;;;16.43;15.63;;;23.40;97.30;;;;;;5117902;27;20538;-67
2023/06/13 07:00:13;;;;;;;16.10;15.40;;;23.50;95.80;;;;;;5101771;27;20488;-67
2023/06/13 07:02:41;;;;;;;16.47;15.77;;;23.50;95.60;;;;;;5105792;27;20547;-67
2023/06/13 07:05:09;;;;;;;16.10;15.40;;;23.80;95.70;;;;;;5108339;27;20454;-67
2023/06/13 07:07:36;;;;;;;16.47;15.77;;;23.90;94.70;;;;;;5113923;27;20456;-68
2023/06/13 07:10:05;;;;;;;17.97;17.13;;;23.80;94.20;;;;;;5101028;27;20994;-68
2023/06/13 07:12:34;;;;;;;15.83;15.13;;;23.80;94.10;;;;;;5098670;27;20457;-68
2023/06/13 07:15:01;;;;;;;16.23;15.53;;;23.90;94.30;;;;;;5095046;27;20505;-68
2023/06/13 07:17:30;;;;;;;17.37;16.60;;;24.20;93.10;;;;;;5094738;28;20456;-68
2023/06/13 07:19:57;;;;;;;16.30;15.60;;;24.50;92.50;;;;;;5093614;27;20493;-67
2023/06/13 07:22:25;;;;;;;15.90;15.20;;;24.60;92.10;;;;;;5095007;27;20570;-68
2023/06/13 07:24:51;;;;;;;16.60;15.80;;;24.60;91.20;;;;;;5094936;27;20944;-67
2023/06/13 07:27:20;;;;;;;16.87;15.97;;;24.50;91.00;;;;;;5100387;27;20778;-68
2023/06/13 07:29:47;;;;;;;15.90;15.20;;;24.70;90.60;;;;;;5085639;27;20466;-67
2023/06/13 07:32:14;;;;;;;15.60;14.90;;;24.90;91.30;;;;;;5101072;27;20466;-68
2023/06/13 07:34:41;;;;;;;17.67;16.53;;;25.00;90.90;;;;;;5091958;27;20469;-69
2023/06/13 07:37:10;;;;;;;15.97;15.27;;;25.20;88.50;;;;;;5089745;27;20473;-68
2023/06/13 07:39:37;;;;;;;17.97;17.17;;;25.10;88.50;;;;;;5092701;27;20485;-68
2023/06/13 07:42:06;;;;;;;15.80;15.10;;;25.40;89.20;;;;;;5102318;27;20460;-68
2023/06/13 07:44:34;;;;;;;16.63;15.93;;;25.50;88.10;;;;;;5091227;27;20560;-68
2023/06/13 07:47:01;;;;;;;16.87;16.17;;;25.40;87.50;;;;;;5091034;28;20553;-67
2023/06/13 07:49:29;;;;;;;15.70;15.00;;;25.40;86.30;;;;;;5101039;27;20553;-67
2023/06/13 07:51:57;;;;;;;15.90;15.20;;;25.40;86.40;;;;;;5093528;27;20469;-67
2023/06/13 07:54:24;;;;;;;15.90;15.20;;;25.50;86.00;;;;;;5094129;27;20547;-67
2023/06/13 07:56:52;;;;;;;16.47;15.77;;;25.60;85.20;;;;;;5094500;28;20928;-67
2023/06/13 07:59:18;;;;;;;16.23;15.53;;;25.90;84.10;;;;;;5100995;27;20486;-68
2023/06/13 08:01:47;;;;;;;16.13;15.40;;;25.80;85.40;;;;;;5089780;27;20461;-68
2023/06/13 08:04:14;;;;;;;17.63;16.83;;;26.30;82.10;;;;;;5094984;27;20470;-67
2023/06/13 08:06:41;;;;;;;16.20;15.50;;;27.10;81.40;;;;;;5094047;27;20880;-68
2023/06/13 08:09:11;;;;;;;17.10;16.30;;;27.80;78.30;;;;;;5100904;27;20455;-69
2023/06/13 08:11:38;;;;;;;17.73;16.93;;;28.10;76.20;;;;;;5096291;27;20551;-68
2023/06/13 08:14:07;;;;;;;16.67;15.97;;;28.80;72.30;;;;;;5092168;28;20489;-67
2023/06/13 08:16:35;;;;;;;17.03;16.23;;;28.90;72.00;;;;;;5093242;27;20622;-69
2023/06/13 08:19:04;;;;;;;16.17;15.47;;;28.70;70.10;;;;;;5095305;27;20486;-67
2023/06/13 08:21:31;;;;;;;16.83;16.13;;;29.60;70.70;;;;;;5096290;27;20518;-67
2023/06/13 08:23:59;;;;;;;17.20;16.40;;;30.00;67.70;;;;;;5105712;28;20449;-69
2023/06/13 08:26:27;;;;;;;16.93;16.13;;;30.50;64.20;;;;;;5104810;27;20489;-68
2023/06/13 08:28:53;;;;;;;16.33;15.63;;;30.50;63.00;;;;;;5095998;27;20484;-68
2023/06/13 08:31:23;;;;;;;16.97;16.10;;;30.40;59.90;;;;;;5103121;28;20464;-68
2023/06/13 08:33:51;;;;;;;16.53;15.83;;;30.10;60.20;;;;;;5103051;28;20465;-68
2023/06/13 08:36:19;;;;;;;16.30;15.60;;;30.30;58.10;;;;;;5097763;27;20466;-68
2023/06/13 08:38:46;;;;;;;16.70;16.00;;;30.40;58.50;;;;;;5105507;27;20473;-68
2023/06/13 08:41:14;;;;;;;16.70;16.00;;;30.70;59.00;;;;;;5092271;28;20494;-69
2023/06/13 08:43:41;;;;;;;16.10;15.40;;;30.40;57.20;;;;;;5094973;27;20445;-69
2023/06/13 08:46:08;;;;;;;16.77;15.97;;;30.50;57.90;;;;;;5097988;28;20817;-68
2023/06/13 08:48:35;;;;;;;16.93;16.17;;;30.50;58.10;;;;;;5090025;27;20466;-68
2023/06/13 08:51:04;;;;;;;15.97;15.27;;;31.20;56.40;;;;;;5094561;27;20472;-68
2023/06/13 08:53:33;;;;;;;17.50;16.60;;;31.60;56.10;;;;;;5098870;27;20838;-69
2023/06/13 08:56:04;;;;;;;17.10;16.40;;;31.90;56.00;;;;;;5083120;28;20489;-68
2023/06/13 08:58:35;;;;;;;16.20;15.50;;;31.10;55.00;;;;;;5098039;28;20845;-67
2023/06/13 09:01:03;;;;;;;16.27;15.57;;;31.40;54.80;;;;;;5102437;27;21004;-68
2023/06/13 09:03:32;;;;;;;16.50;15.80;;;32.00;55.30;;;;;;5094145;28;20556;-68
2023/06/13 09:06:00;;;;;;;16.80;16.10;;;31.80;53.40;;;;;;5088734;28;20549;-68
2023/06/13 09:08:29;;;;;;;16.50;15.80;;;32.50;52.70;;;;;;5090605;28;20461;-69
2023/06/13 09:10:59;;;;;;;16.47;15.77;;;32.20;52.20;;;;;;5091680;27;20473;-69
2023/06/13 09:13:29;;;;;;;17.63;16.93;;;32.20;52.50;;;;;;5104023;28;20535;-68
2023/06/13 09:15:57;;;;;;;51.30;16.60;;;32.40;51.40;;;;;;5094362;28;20923;-68
2023/06/13 09:18:25;;;;;;;15.87;15.17;;;32.20;50.80;;;;;;5100154;28;20464;-69
2023/06/13 09:20:52;;;;;;;16.50;15.80;;;32.50;51.40;;;;;;5093161;28;20857;-67
2023/06/13 09:23:20;;;;;;;16.50;15.77;;;32.40;50.00;;;;;;5095055;28;20465;-68
2023/06/13 09:25:49;;;;;;;16.60;15.90;;;32.50;50.20;;;;;;5094588;28;20904;-68
2023/06/13 09:28:31;;;;;;;16.07;15.37;;;32.20;50.20;;;;;;5101679;28;21149;-69
2023/06/13 09:30:58;;;;;;;16.97;16.27;;;32.30;49.50;;;;;;5102885;28;20471;-68
2023/06/13 09:33:26;;;;;;;16.57;15.87;;;32.60;49.80;;;;;;5097719;28;20466;-69
2023/06/13 09:35:53;;;;;;;16.13;15.43;;;32.80;49.30;;;;;;5101107;28;20550;-68
2023/06/13 09:38:23;;;;;;;16.70;16.00;;;33.30;47.70;;;;;;5093980;28;20477;-69
2023/06/13 09:40:50;;;;;;;17.57;16.80;;;32.80;48.40;;;;;;5096994;28;20477;-68
2023/06/13 09:43:17;;;;;;;17.30;16.40;;;33.20;47.90;;;;;;5099927;28;20473;-68
2023/06/13 09:45:48;;;;;;;16.30;15.60;;;32.90;46.70;;;;;;5106360;28;20458;-69
2023/06/13 09:48:15;;;;;;;16.30;15.60;;;33.50;47.90;;;;;;5100520;28;20469;-68
2023/06/13 09:50:43;;;;;;;16.00;15.30;;;34.60;46.20;;;;;;5086988;28;20465;-68
2023/06/13 09:53:10;;;;;;;16.73;16.00;;;34.30;45.50;;;;;;5093911;28;20742;-68
2023/06/13 09:55:38;;;;;;;16.17;15.47;;;34.10;46.50;;;;;;5094730;28;20515;-69
2023/06/13 09:58:05;;;;;;;20.57;17.03;;;34.40;46.50;;;;;;5097433;28;20453;-69
2023/06/13 10:00:32;;;;;;;16.97;16.23;;;34.30;45.60;;;;;;5091441;28;20477;-68
2023/06/13 10:03:02;;;;;;;16.70;16.00;;;34.30;45.60;;;;;;5092855;28;20457;-68
2023/06/13 10:05:29;;;;;;;17.50;16.60;;;34.40;46.30;;;;;;5095162;28;20458;-68
2023/06/13 10:07:56;;;;;;;17.23;16.43;;;34.60;46.00;;;;;;5086660;28;20899;-68
2023/06/13 10:10:23;;;;;;;17.03;16.30;;;35.10;45.40;;;;;;5094568;28;20861;-68
2023/06/13 10:12:51;;;;;;;16.30;15.60;;;35.20;44.80;;;;;;5094111;28;20526;-68
2023/06/13 10:15:24;;;;;;;16.90;16.10;;;33.70;45.40;;;;;;5100770;27;20492;-69
2023/06/13 10:17:55;;;;;;;17.10;16.30;;;33.20;46.20;;;;;;5101143;27;20547;-68
2023/06/13 10:20:24;;;;;;;16.83;16.13;;;33.10;45.40;;;;;;5094991;27;20493;-68
2023/06/13 10:22:52;;;;;;;16.63;15.93;;;33.50;46.30;;;;;;5092825;27;20469;-68
2023/06/13 10:25:22;;;;;;;16.67;15.83;;;33.80;45.30;;;;;;5092815;27;20453;-68
2023/06/13 10:27:52;;;;;;;17.57;16.73;;;34.50;45.60;;;;;;5099326;28;20480;-69
2023/06/13 10:30:42;;;;;;;17.57;16.77;;;34.90;44.70;;;;;;5107427;27;20460;-68
2023/06/13 10:33:41;;;;;;;16.10;15.40;;;34.60;44.90;;;;;;5096669;27;20460;-68
2023/06/13 10:36:23;;;;;;;16.30;15.60;;;35.60;42.80;;;;;;5106222;27;20452;-70
2023/06/13 10:39:38;;;;;;;16.47;15.67;;;36.10;43.50;;;;;;5099762;27;20567;-68
2023/06/13 10:42:14;;;;;;;17.97;16.70;;;36.00;43.00;;;;;;5077351;27;20537;-69
2023/06/13 10:44:48;;;;;;;16.50;15.80;;;36.00;42.90;;;;;;5101139;27;20874;-70
2023/06/13 10:47:18;;;;;;;16.80;16.07;;;34.90;42.50;;;;;;5083053;27;20477;-69
2023/06/13 10:49:49;;;;;;;16.50;15.80;;;34.20;43.50;;;;;;5092403;27;20473;-68
2023/06/13 10:52:19;;;;;;;16.37;15.67;;;34.50;44.10;;;;;;5093521;27;20505;-70
2023/06/13 10:54:52;;;;;;;16.27;15.57;;;34.00;43.80;;;;;;5095913;28;20905;-70
2023/06/13 10:57:19;;;;;;;16.00;15.30;;;33.80;44.60;;;;;;5098669;27;20974;-68
2023/06/13 10:59:48;;;;;;;15.70;14.90;;;33.80;43.90;;;;;;5103421;27;20556;-69
2023/06/13 11:02:17;;;;;;;15.70;15.00;;;33.80;44.10;;;;;;5095411;27;20482;-69
2023/06/13 11:04:50;;;;;;;17.63;16.73;;;34.00;43.60;;;;;;5080062;28;21192;-69
2023/06/13 11:07:29;;;;;;;15.37;14.77;;;33.70;43.60;;;;;;5076162;27;20460;-70
2023/06/13 11:10:03;;;;;;;15.33;14.73;;;34.50;42.60;;;;;;5099988;27;20499;-69
2023/06/13 11:12:30;;;;;;;15.60;14.90;;;34.50;41.60;;;;;;5094223;27;20462;-69
2023/06/13 11:14:59;;;;;;;16.77;15.97;;;34.00;42.60;;;;;;5099829;27;21036;-70
2023/06/13 11:17:27;;;;;;;15.33;14.73;;;34.90;43.00;;;;;;5093619;27;20468;-70
2023/06/13 11:19:56;;;;;;;15.20;14.60;;;35.50;42.90;;;;;;5098516;27;20492;-69
2023/06/13 11:22:23;;;;;;;16.70;15.90;;;34.80;42.90;;;;;;5090429;27;20569;-66
2023/06/13 11:24:56;;;;;;;15.30;14.70;;;35.60;41.20;;;;;;5100543;27;20456;-68
2023/06/13 11:27:25;;;;;;;15.63;14.93;;;35.50;40.40;;;;;;5094387;28;20469;-69
2023/06/13 11:29:53;;;;;;;16.80;16.00;;;34.90;41.20;;;;;;5090584;27;20534;-67
2023/06/13 11:32:22;;;;;;;15.90;15.20;;;34.90;41.80;;;;;;5101060;27;21061;-68
2023/06/13 11:34:51;;;;;;;16.77;15.97;;;35.00;42.10;;;;;;5102734;27;20457;-67
2023/06/13 11:37:27;;;;;;;16.00;15.20;;;35.10;40.40;;;;;;5091559;27;20476;-70
2023/06/13 11:39:57;;;;;;;15.33;14.73;;;34.50;41.20;;;;;;5101849;27;20449;-68
2023/06/13 11:42:24;;;;;;;15.70;15.00;;;34.90;42.10;;;;;;5096699;27;20496;-69
2023/06/13 11:44:53;;;;;;;15.23;14.63;;;34.90;41.70;;;;;;5088845;27;20457;-69
2023/06/13 11:47:20;;;;;;;15.90;15.20;;;35.30;40.50;;;;;;5099225;27;20518;-69
2023/06/13 11:49:57;;;;;;;15.80;15.10;;;35.50;40.00;;;;;;5106480;27;20927;-69
2023/06/13 11:52:25;;;;;;;15.17;14.57;;;36.00;40.50;;;;;;5102450;27;20817;-70
2023/06/13 11:54:52;;;;;;;15.70;15.00;;;36.30;41.30;;;;;;5103249;27;20462;-69
2023/06/13 11:57:20;;;;;;;16.87;15.67;;;36.60;39.10;;;;;;5093593;27;20462;-69
2023/06/13 11:59:56;;;;;;;16.20;15.30;;;36.80;38.60;;;;;;5094295;27;20459;-69
2023/06/13 12:02:25;;;;;;;14.83;14.23;;;37.60;39.60;;;;;;5104156;27;20559;-70
2023/06/13 12:04:52;;;;;;;15.30;14.70;;;36.90;39.30;;;;;;5104503;27;20886;-68
2023/06/13 12:07:20;;;;;;;14.83;14.23;;;36.80;40.00;;;;;;5093993;27;20503;-69
2023/06/13 12:09:46;;;;;;;15.00;14.40;;;36.70;39.40;;;;;;5093762;27;20491;-70
2023/06/13 12:12:14;;;;;;;15.83;15.13;;;37.00;39.10;;;;;;5088257;28;20473;-70
2023/06/13 12:14:42;;;;;;;14.93;14.33;;;37.20;38.70;;;;;;5090462;28;20454;-69
2023/06/13 12:17:09;;;;;;;15.80;15.10;;;37.30;39.00;;;;;;5094158;27;20464;-70
2023/06/13 12:19:36;;;;;;;15.53;14.73;;;37.50;38.00;;;;;;5085550;28;20821;-69
2023/06/13 12:22:03;;;;;;;15.27;14.67;;;38.50;38.50;;;;;;5085600;28;20580;-66
2023/06/13 12:24:31;;;;;;;16.20;15.50;;;38.40;37.40;;;;;;5086777;28;20465;-68
2023/06/13 12:26:58;;;;;;;15.30;14.70;;;37.10;37.80;;;;;;5093016;27;20847;-68
2023/06/13 12:29:27;;;;;;;15.73;15.07;;;36.50;38.00;;;;;;5100442;27;20586;-67
2023/06/13 12:32:03;;;;;;;14.90;14.30;;;36.50;37.70;;;;;;5113419;27;20445;-68
2023/06/13 12:34:32;;;;;;;17.50;16.60;;;36.50;37.90;;;;;;5094026;27;21126;-69